DPPJG EDFZ-EDDR
Flight info
| Callsign | DPPJG |
|---|---|
| Flight time | 0h 33m |
| Altitude | 10000 |
| Route | DCT |
| Aircraft | S22T/L-SDGRY/S |
Departure
| Time | 2026-04-26 14:16 |
|---|---|
| Airport | Mainz-Finthen Airfield (EDFZ) |
Arrival
| Time | 2026-04-26 14:49 |
|---|---|
| Airport | Saarbrücken Airport (EDDR) |
| Time | Latitude | Longitude | Altitude | Speed | Heading |
|---|---|---|---|---|---|
| 2026-04-26 14:09 | 49.97082 | 8.14835 | 779 ft | 0 kts | 172° |
| 2026-04-26 14:11 | 49.97081 | 8.14836 | 763 ft | 1 kts | 171° |
| 2026-04-26 14:11 | 49.97069 | 8.14826 | 764 ft | 5 kts | 235° |
| 2026-04-26 14:12 | 49.97051 | 8.14733 | 763 ft | 13 kts | 263° |
| 2026-04-26 14:12 | 49.97028 | 8.14590 | 763 ft | 14 kts | 250° |
| 2026-04-26 14:12 | 49.96997 | 8.14419 | 763 ft | 19 kts | 256° |
| 2026-04-26 14:12 | 49.96963 | 8.14211 | 762 ft | 18 kts | 259° |
| 2026-04-26 14:13 | 49.96922 | 8.14092 | 762 ft | 4 kts | 216° |
| 2026-04-26 14:13 | 49.96878 | 8.14088 | 762 ft | 9 kts | 166° |
| 2026-04-26 14:13 | 49.96826 | 8.14107 | 763 ft | 7 kts | 166° |
| 2026-04-26 14:14 | 49.96808 | 8.14120 | 763 ft | 2 kts | 139° |
| 2026-04-26 14:14 | 49.96804 | 8.14163 | 763 ft | 0 kts | 71° |
| 2026-04-26 14:14 | 49.96817 | 8.14236 | 763 ft | 25 kts | 74° |
| 2026-04-26 14:14 | 49.96900 | 8.14697 | 763 ft | 71 kts | 72° |
| 2026-04-26 14:15 | 49.97027 | 8.15593 | 822 ft | 86 kts | 99° |
| 2026-04-26 14:15 | 49.96572 | 8.16001 | 958 ft | 100 kts | 207° |
| 2026-04-26 14:15 | 49.96025 | 8.15248 | 1052 ft | 113 kts | 198° |
| 2026-04-26 14:15 | 49.95260 | 8.15076 | 1167 ft | 118 kts | 171° |
| 2026-04-26 14:16 | 49.94478 | 8.15452 | 1287 ft | 122 kts | 147° |
| 2026-04-26 14:16 | 49.93788 | 8.16189 | 1455 ft | 121 kts | 140° |
| 2026-04-26 14:16 | 49.93184 | 8.17094 | 1594 ft | 123 kts | 118° |
| 2026-04-26 14:16 | 49.92886 | 8.18383 | 1633 ft | 129 kts | 113° |
| 2026-04-26 14:17 | 49.92325 | 8.19435 | 1886 ft | 123 kts | 135° |
| 2026-04-26 14:17 | 49.91427 | 8.19679 | 1701 ft | 149 kts | 197° |
| 2026-04-26 14:17 | 49.90719 | 8.18719 | 2102 ft | 129 kts | 237° |
| 2026-04-26 14:17 | 49.90180 | 8.17630 | 2313 ft | 129 kts | 218° |
| 2026-04-26 14:18 | 49.89330 | 8.17117 | 2397 ft | 135 kts | 183° |
| 2026-04-26 14:18 | 49.88426 | 8.16979 | 2653 ft | 130 kts | 198° |
| 2026-04-26 14:18 | 49.87651 | 8.16178 | 2816 ft | 133 kts | 211° |
| 2026-04-26 14:18 | 49.86963 | 8.15251 | 3006 ft | 138 kts | 240° |
| 2026-04-26 14:19 | 49.86609 | 8.13925 | 3301 ft | 132 kts | 255° |
| 2026-04-26 14:19 | 49.86417 | 8.12481 | 3473 ft | 137 kts | 263° |
| 2026-04-26 14:19 | 49.86384 | 8.11060 | 3623 ft | 130 kts | 277° |
| 2026-04-26 14:19 | 49.86520 | 8.09762 | 4000 ft | 116 kts | 285° |
| 2026-04-26 14:20 | 49.86688 | 8.08347 | 3907 ft | 138 kts | 283° |
| 2026-04-26 14:20 | 49.86760 | 8.07034 | 4493 ft | 111 kts | 272° |
| 2026-04-26 14:20 | 49.86809 | 8.05841 | 4730 ft | 117 kts | 281° |
| 2026-04-26 14:20 | 49.86822 | 8.04418 | 4263 ft | 163 kts | 269° |
| 2026-04-26 14:21 | 49.86692 | 8.02347 | 3303 ft | 200 kts | 265° |
| 2026-04-26 14:21 | 49.86602 | 8.00232 | 2906 ft | 188 kts | 271° |
| 2026-04-26 14:21 | 49.86649 | 7.98491 | 3108 ft | 144 kts | 276° |
| 2026-04-26 14:21 | 49.86753 | 7.96929 | 2878 ft | 144 kts | 283° |
| 2026-04-26 14:22 | 49.86852 | 7.95529 | 2942 ft | 127 kts | 262° |
| 2026-04-26 14:22 | 49.86460 | 7.94235 | 2638 ft | 136 kts | 237° |
| 2026-04-26 14:22 | 49.85975 | 7.93077 | 2589 ft | 123 kts | 242° |
| 2026-04-26 14:22 | 49.85593 | 7.91854 | 2384 ft | 130 kts | 247° |
| 2026-04-26 14:23 | 49.85305 | 7.90540 | 2191 ft | 126 kts | 259° |
| 2026-04-26 14:23 | 49.85243 | 7.89194 | 2000 ft | 128 kts | 280° |
| 2026-04-26 14:23 | 49.85482 | 7.87871 | 1924 ft | 121 kts | 271° |
| 2026-04-26 14:23 | 49.85141 | 7.86690 | 1745 ft | 121 kts | 232° |
| 2026-04-26 14:24 | 49.84611 | 7.85685 | 1549 ft | 123 kts | 227° |
| 2026-04-26 14:24 | 49.83999 | 7.84739 | 1421 ft | 118 kts | 222° |
| 2026-04-26 14:24 | 49.83374 | 7.83890 | 1386 ft | 123 kts | 216° |
| 2026-04-26 14:24 | 49.82664 | 7.83133 | 1358 ft | 124 kts | 207° |
| 2026-04-26 14:25 | 49.81848 | 7.82736 | 1321 ft | 125 kts | 184° |
| 2026-04-26 14:25 | 49.80987 | 7.82606 | 1391 ft | 120 kts | 181° |
| 2026-04-26 14:25 | 49.80439 | 7.82641 | 1435 ft | 122 kts | 167° |
| 2026-04-26 14:25 | 49.79355 | 7.83478 | 1847 ft | 127 kts | 134° |
| 2026-04-26 14:26 | 49.78928 | 7.84068 | 2186 ft | 123 kts | 138° |
| 2026-04-26 14:26 | 49.78313 | 7.84946 | 2543 ft | 121 kts | 132° |
| 2026-04-26 14:26 | 49.77652 | 7.85816 | 2773 ft | 131 kts | 152° |
| 2026-04-26 14:26 | 49.76672 | 7.85727 | 2856 ft | 159 kts | 207° |
| 2026-04-26 14:27 | 49.75871 | 7.84698 | 3373 ft | 148 kts | 223° |
| 2026-04-26 14:27 | 49.74994 | 7.83696 | 3316 ft | 167 kts | 213° |
| 2026-04-26 14:27 | 49.74012 | 7.82682 | 3251 ft | 179 kts | 219° |
| 2026-04-26 14:27 | 49.73086 | 7.81449 | 3579 ft | 159 kts | 216° |
| 2026-04-26 14:28 | 49.72165 | 7.80466 | 3795 ft | 167 kts | 211° |
| 2026-04-26 14:28 | 49.71131 | 7.79811 | 4223 ft | 161 kts | 198° |
| 2026-04-26 14:28 | 49.70189 | 7.79098 | 4872 ft | 138 kts | 213° |
| 2026-04-26 14:28 | 49.69372 | 7.78521 | 5457 ft | 132 kts | 211° |
| 2026-04-26 14:29 | 49.68458 | 7.77647 | 5293 ft | 169 kts | 210° |
| 2026-04-26 14:29 | 49.67406 | 7.76491 | 4763 ft | 202 kts | 224° |
| 2026-04-26 14:29 | 49.66534 | 7.74882 | 5076 ft | 180 kts | 239° |
| 2026-04-26 14:29 | 49.66434 | 7.74637 | 5201 ft | 170 kts | 240° |
| 2026-04-26 14:30 | 49.66103 | 7.73811 | 5497 ft | 136 kts | 243° |
| 2026-04-26 14:30 | 49.65695 | 7.72339 | 5052 ft | 148 kts | 255° |
| 2026-04-26 14:30 | 49.65441 | 7.70951 | 5082 ft | 126 kts | 261° |
| 2026-04-26 14:30 | 49.65228 | 7.69686 | 4997 ft | 118 kts | 261° |
| 2026-04-26 14:31 | 49.65155 | 7.68420 | 4786 ft | 127 kts | 266° |
| 2026-04-26 14:31 | 49.64768 | 7.67117 | 4491 ft | 141 kts | 238° |
| 2026-04-26 14:31 | 49.64217 | 7.66055 | 4517 ft | 122 kts | 233° |
| 2026-04-26 14:31 | 49.63588 | 7.65124 | 4224 ft | 133 kts | 218° |
| 2026-04-26 14:32 | 49.62753 | 7.64407 | 4000 ft | 137 kts | 208° |
| 2026-04-26 14:32 | 49.62033 | 7.63551 | 3918 ft | 131 kts | 221° |
| 2026-04-26 14:32 | 49.61121 | 7.63139 | 3473 ft | 150 kts | 172° |
| 2026-04-26 14:32 | 49.60138 | 7.63428 | 3405 ft | 136 kts | 186° |
| 2026-04-26 14:33 | 49.59341 | 7.62780 | 3133 ft | 137 kts | 231° |
| 2026-04-26 14:33 | 49.59043 | 7.61273 | 2676 ft | 149 kts | 250° |
| 2026-04-26 14:33 | 49.58460 | 7.60243 | 2663 ft | 128 kts | 213° |
| 2026-04-26 14:33 | 49.57688 | 7.59534 | 2436 ft | 130 kts | 209° |
| 2026-04-26 14:34 | 49.56892 | 7.58874 | 2253 ft | 128 kts | 207° |
| 2026-04-26 14:34 | 49.56112 | 7.58209 | 2097 ft | 128 kts | 207° |
| 2026-04-26 14:34 | 49.55298 | 7.57681 | 1923 ft | 127 kts | 195° |
| 2026-04-26 14:34 | 49.54454 | 7.57313 | 1785 ft | 127 kts | 203° |
| 2026-04-26 14:35 | 49.53769 | 7.56507 | 1697 ft | 122 kts | 230° |
| 2026-04-26 14:35 | 49.53394 | 7.55310 | 1520 ft | 120 kts | 251° |
| 2026-04-26 14:35 | 49.53031 | 7.54322 | 1485 ft | 109 kts | 226° |
| 2026-04-26 14:35 | 49.52548 | 7.53491 | 1460 ft | 96 kts | 228° |
| 2026-04-26 14:36 | 49.52146 | 7.52792 | 1477 ft | 77 kts | 228° |
| 2026-04-26 14:36 | 49.51733 | 7.52088 | 1464 ft | 99 kts | 225° |
| 2026-04-26 14:36 | 49.51246 | 7.51215 | 1504 ft | 110 kts | 222° |
| 2026-04-26 14:36 | 49.50633 | 7.50459 | 1717 ft | 116 kts | 207° |
| 2026-04-26 14:37 | 49.50029 | 7.49706 | 2040 ft | 115 kts | 222° |
| 2026-04-26 14:37 | 49.49331 | 7.48977 | 2220 ft | 125 kts | 204° |
| 2026-04-26 14:37 | 49.48489 | 7.48734 | 2306 ft | 133 kts | 173° |
| 2026-04-26 14:37 | 49.47744 | 7.48161 | 2694 ft | 124 kts | 226° |
| 2026-04-26 14:38 | 49.47104 | 7.47228 | 2837 ft | 131 kts | 214° |
| 2026-04-26 14:38 | 49.46424 | 7.46311 | 3049 ft | 126 kts | 221° |
| 2026-04-26 14:38 | 49.45824 | 7.45337 | 3220 ft | 127 kts | 230° |
| 2026-04-26 14:38 | 49.45141 | 7.44440 | 3506 ft | 130 kts | 210° |
| 2026-04-26 14:39 | 49.44428 | 7.43640 | 3783 ft | 126 kts | 223° |
| 2026-04-26 14:39 | 49.43780 | 7.42708 | 4103 ft | 129 kts | 223° |
| 2026-04-26 14:39 | 49.43174 | 7.41689 | 4422 ft | 127 kts | 228° |
| 2026-04-26 14:39 | 49.42394 | 7.41004 | 4511 ft | 140 kts | 188° |
| 2026-04-26 14:40 | 49.41443 | 7.40489 | 4634 ft | 140 kts | 210° |
| 2026-04-26 14:40 | 49.40669 | 7.39875 | 5122 ft | 121 kts | 201° |
| 2026-04-26 14:40 | 49.39873 | 7.39284 | 5197 ft | 134 kts | 205° |
| 2026-04-26 14:40 | 49.39049 | 7.38564 | 5309 ft | 138 kts | 219° |
| 2026-04-26 14:41 | 49.38315 | 7.37738 | 5610 ft | 127 kts | 207° |
| 2026-04-26 14:41 | 49.37550 | 7.36951 | 5624 ft | 140 kts | 228° |
| 2026-04-26 14:41 | 49.36935 | 7.35862 | 5919 ft | 128 kts | 228° |
| 2026-04-26 14:41 | 49.36181 | 7.35122 | 6089 ft | 135 kts | 203° |
| 2026-04-26 14:42 | 49.35304 | 7.34568 | 6233 ft | 137 kts | 216° |
| 2026-04-26 14:42 | 49.34613 | 7.33383 | 5950 ft | 161 kts | 237° |
| 2026-04-26 14:42 | 49.34251 | 7.31857 | 5990 ft | 156 kts | 255° |
| 2026-04-26 14:42 | 49.34034 | 7.30116 | 5655 ft | 164 kts | 267° |
| 2026-04-26 14:43 | 49.33931 | 7.28388 | 6043 ft | 147 kts | 274° |
| 2026-04-26 14:43 | 49.33801 | 7.26807 | 6068 ft | 170 kts | 257° |
| 2026-04-26 14:43 | 49.33695 | 7.24989 | 6261 ft | 161 kts | 267° |
| 2026-04-26 14:43 | 49.33452 | 7.23480 | 6850 ft | 143 kts | 255° |
| 2026-04-26 14:44 | 49.33134 | 7.21850 | 6702 ft | 170 kts | 247° |
| 2026-04-26 14:44 | 49.32531 | 7.20300 | 6697 ft | 160 kts | 235° |
| 2026-04-26 14:44 | 49.31976 | 7.18877 | 6510 ft | 153 kts | 263° |
| 2026-04-26 14:44 | 49.32449 | 7.17351 | 4867 ft | 210 kts | 316° |
| 2026-04-26 14:45 | 49.32746 | 7.15416 | 4811 ft | 186 kts | 257° |
| 2026-04-26 14:45 | 49.32322 | 7.14297 | 4558 ft | 185 kts | 230° |
| 2026-04-26 14:45 | 49.31294 | 7.12317 | 4352 ft | 176 kts | 245° |
| 2026-04-26 14:45 | 49.30529 | 7.10966 | 4324 ft | 160 kts | 225° |
| 2026-04-26 14:46 | 49.29785 | 7.09840 | 4172 ft | 155 kts | 212° |
| 2026-04-26 14:46 | 49.28772 | 7.08937 | 3426 ft | 182 kts | 214° |
| 2026-04-26 14:46 | 49.27795 | 7.07746 | 3130 ft | 173 kts | 220° |
| 2026-04-26 14:46 | 49.26883 | 7.06737 | 3174 ft | 151 kts | 215° |
| 2026-04-26 14:47 | 49.26051 | 7.05876 | 3200 ft | 139 kts | 216° |
| 2026-04-26 14:47 | 49.25237 | 7.05294 | 3201 ft | 120 kts | 180° |
| 2026-04-26 14:47 | 49.24471 | 7.05464 | 3207 ft | 113 kts | 169° |
| 2026-04-26 14:47 | 49.23660 | 7.05657 | 2821 ft | 131 kts | 169° |
| 2026-04-26 14:48 | 49.22774 | 7.06165 | 2565 ft | 142 kts | 152° |
| 2026-04-26 14:48 | 49.21956 | 7.07044 | 2088 ft | 143 kts | 133° |
| 2026-04-26 14:48 | 49.21439 | 7.08205 | 1473 ft | 125 kts | 101° |
| 2026-04-26 14:48 | 49.21417 | 7.09402 | 1134 ft | 107 kts | 82° |
| 2026-04-26 14:49 | 49.21444 | 7.10374 | 1050 ft | 74 kts | 84° |
| 2026-04-26 14:49 | 49.21470 | 7.11011 | 1046 ft | 36 kts | 92° |
| 2026-04-26 14:49 | 49.21469 | 7.11331 | 1052 ft | 27 kts | 89° |
| 2026-04-26 14:49 | 49.21470 | 7.11590 | 1055 ft | 23 kts | 87° |
| 2026-04-26 14:50 | 49.21476 | 7.11822 | 1057 ft | 21 kts | 86° |
| 2026-04-26 14:50 | 49.21500 | 7.12036 | 1058 ft | 20 kts | 68° |
| 2026-04-26 14:50 | 49.21500 | 7.12220 | 1059 ft | 18 kts | 61° |
| 2026-04-26 14:50 | 49.21596 | 7.12182 | 1061 ft | 16 kts | 322° |
| 2026-04-26 14:51 | 49.21671 | 7.12052 | 1060 ft | 17 kts | 319° |
| 2026-04-26 14:51 | 49.21757 | 7.11910 | 1058 ft | 19 kts | 314° |
| 2026-04-26 14:51 | 49.21828 | 7.11741 | 1056 ft | 20 kts | 289° |
| 2026-04-26 14:51 | 49.21865 | 7.11556 | 1053 ft | 19 kts | 3° |
| 2026-04-26 14:52 | 49.21923 | 7.11601 | 1054 ft | 0 kts | 30° |